sensor_id;sensor_type;location;lat;lon;timestamp;pressure;altitude;pressure_sealevel;temperature
68027;BMP180;54819;48.030;14.710;2023-09-18T00:01:13;97359.40;;;17.60
68027;BMP180;54819;48.030;14.710;2023-09-18T00:03:41;97356.20;;;17.60
68027;BMP180;54819;48.030;14.710;2023-09-18T00:06:08;97355.60;;;17.60
68027;BMP180;54819;48.030;14.710;2023-09-18T00:08:35;97353.00;;;17.60
68027;BMP180;54819;48.030;14.710;2023-09-18T00:11:02;97356.00;;;17.58
68027;BMP180;54819;48.030;14.710;2023-09-18T00:13:29;97354.20;;;17.50
68027;BMP180;54819;48.030;14.710;2023-09-18T00:15:56;97352.40;;;17.50
68027;BMP180;54819;48.030;14.710;2023-09-18T00:18:26;97357.00;;;17.50
68027;BMP180;54819;48.030;14.710;2023-09-18T00:20:53;97358.40;;;17.48
68027;BMP180;54819;48.030;14.710;2023-09-18T00:23:20;97353.60;;;17.40
68027;BMP180;54819;48.030;14.710;2023-09-18T00:25:47;97346.60;;;17.40
68027;BMP180;54819;48.030;14.710;2023-09-18T00:28:14;97349.60;;;17.40
68027;BMP180;54819;48.030;14.710;2023-09-18T00:30:48;97347.00;;;17.30
68027;BMP180;54819;48.030;14.710;2023-09-18T00:33:16;97347.80;;;17.30
68027;BMP180;54819;48.030;14.710;2023-09-18T00:35:50;97348.40;;;17.24
68027;BMP180;54819;48.030;14.710;2023-09-18T00:38:17;97341.60;;;17.20
68027;BMP180;54819;48.030;14.710;2023-09-18T00:40:45;97336.40;;;17.20
68027;BMP180;54819;48.030;14.710;2023-09-18T00:43:12;97326.80;;;17.20
68027;BMP180;54819;48.030;14.710;2023-09-18T00:45:42;97327.40;;;17.10
68027;BMP180;54819;48.030;14.710;2023-09-18T00:48:11;97326.60;;;17.10
68027;BMP180;54819;48.030;14.710;2023-09-18T00:50:38;97320.00;;;17.10
68027;BMP180;54819;48.030;14.710;2023-09-18T00:53:08;97312.60;;;17.00
68027;BMP180;54819;48.030;14.710;2023-09-18T00:55:36;97311.20;;;17.00
68027;BMP180;54819;48.030;14.710;2023-09-18T00:58:05;97310.80;;;17.00
68027;BMP180;54819;48.030;14.710;2023-09-18T01:00:31;97314.60;;;17.00
68027;BMP180;54819;48.030;14.710;2023-09-18T01:02:58;97311.40;;;16.90
68027;BMP180;54819;48.030;14.710;2023-09-18T01:05:27;97310.80;;;16.90
68027;BMP180;54819;48.030;14.710;2023-09-18T01:07:54;97302.20;;;16.90
68027;BMP180;54819;48.030;14.710;2023-09-18T01:10:24;97304.40;;;16.90
68027;BMP180;54819;48.030;14.710;2023-09-18T01:13:13;97305.40;;;16.90
68027;BMP180;54819;48.030;14.710;2023-09-18T01:15:48;97302.00;;;16.90
68027;BMP180;54819;48.030;14.710;2023-09-18T01:18:15;97297.40;;;16.90
68027;BMP180;54819;48.030;14.710;2023-09-18T01:20:44;97294.00;;;16.90
68027;BMP180;54819;48.030;14.710;2023-09-18T01:23:11;97296.40;;;16.80
68027;BMP180;54819;48.030;14.710;2023-09-18T01:25:40;97296.20;;;16.80
68027;BMP180;54819;48.030;14.710;2023-09-18T01:28:07;97293.20;;;16.80
68027;BMP180;54819;48.030;14.710;2023-09-18T01:30:34;97295.40;;;16.80
68027;BMP180;54819;48.030;14.710;2023-09-18T01:33:01;97292.40;;;16.72
68027;BMP180;54819;48.030;14.710;2023-09-18T01:35:29;97290.80;;;16.70
68027;BMP180;54819;48.030;14.710;2023-09-18T01:37:59;97290.40;;;16.70
68027;BMP180;54819;48.030;14.710;2023-09-18T01:40:26;97287.60;;;16.70
68027;BMP180;54819;48.030;14.710;2023-09-18T01:42:53;97282.40;;;16.70
68027;BMP180;54819;48.030;14.710;2023-09-18T01:45:20;97286.40;;;16.70
68027;BMP180;54819;48.030;14.710;2023-09-18T01:47:46;97287.40;;;16.60
68027;BMP180;54819;48.030;14.710;2023-09-18T01:50:13;97291.60;;;16.60
68027;BMP180;54819;48.030;14.710;2023-09-18T01:52:40;97293.40;;;16.60
68027;BMP180;54819;48.030;14.710;2023-09-18T01:55:08;97289.60;;;16.60
68027;BMP180;54819;48.030;14.710;2023-09-18T01:57:34;97292.40;;;16.54
68027;BMP180;54819;48.030;14.710;2023-09-18T02:00:02;97287.60;;;16.50
68027;BMP180;54819;48.030;14.710;2023-09-18T02:02:37;97287.40;;;16.50
68027;BMP180;54819;48.030;14.710;2023-09-18T02:05:11;97279.40;;;16.50
68027;BMP180;54819;48.030;14.710;2023-09-18T02:07:38;97273.20;;;16.50
68027;BMP180;54819;48.030;14.710;2023-09-18T02:10:05;97267.00;;;16.50
68027;BMP180;54819;48.030;14.710;2023-09-18T02:12:33;97263.00;;;16.50
68027;BMP180;54819;48.030;14.710;2023-09-18T02:15:01;97253.80;;;16.46
68027;BMP180;54819;48.030;14.710;2023-09-18T02:17:32;97252.80;;;16.52
68027;BMP180;54819;48.030;14.710;2023-09-18T02:19:59;97250.80;;;16.62
68027;BMP180;54819;48.030;14.710;2023-09-18T02:22:32;97243.40;;;16.60
68027;BMP180;54819;48.030;14.710;2023-09-18T02:24:59;97234.20;;;16.60
68027;BMP180;54819;48.030;14.710;2023-09-18T02:27:26;97229.60;;;16.50
68027;BMP180;54819;48.030;14.710;2023-09-18T02:29:53;97231.20;;;16.50
68027;BMP180;54819;48.030;14.710;2023-09-18T02:32:20;97226.60;;;16.50
68027;BMP180;54819;48.030;14.710;2023-09-18T02:34:47;97221.80;;;16.40
68027;BMP180;54819;48.030;14.710;2023-09-18T02:37:14;97221.60;;;16.40
68027;BMP180;54819;48.030;14.710;2023-09-18T02:39:40;97218.40;;;16.40
68027;BMP180;54819;48.030;14.710;2023-09-18T02:42:08;97214.00;;;16.30
68027;BMP180;54819;48.030;14.710;2023-09-18T02:44:34;97217.80;;;16.30
68027;BMP180;54819;48.030;14.710;2023-09-18T02:47:01;97222.20;;;16.30
68027;BMP180;54819;48.030;14.710;2023-09-18T02:49:28;97222.00;;;16.22
68027;BMP180;54819;48.030;14.710;2023-09-18T02:51:56;97221.00;;;16.20
68027;BMP180;54819;48.030;14.710;2023-09-18T02:54:23;97213.60;;;16.20
68027;BMP180;54819;48.030;14.710;2023-09-18T02:56:50;97207.00;;;16.20
68027;BMP180;54819;48.030;14.710;2023-09-18T02:59:16;97210.40;;;16.20
68027;BMP180;54819;48.030;14.710;2023-09-18T03:01:43;97212.00;;;16.20
68027;BMP180;54819;48.030;14.710;2023-09-18T03:04:10;97217.20;;;16.18
68027;BMP180;54819;48.030;14.710;2023-09-18T03:06:38;97212.00;;;16.10
68027;BMP180;54819;48.030;14.710;2023-09-18T03:09:06;97214.00;;;16.10
68027;BMP180;54819;48.030;14.710;2023-09-18T03:11:33;97207.60;;;16.10
68027;BMP180;54819;48.030;14.710;2023-09-18T03:14:00;97208.20;;;16.10
68027;BMP180;54819;48.030;14.710;2023-09-18T03:16:26;97205.80;;;16.10
68027;BMP180;54819;48.030;14.710;2023-09-18T03:18:53;97206.00;;;16.10
68027;BMP180;54819;48.030;14.710;2023-09-18T03:21:21;97201.40;;;16.10
68027;BMP180;54819;48.030;14.710;2023-09-18T03:23:48;97199.40;;;16.00
68027;BMP180;54819;48.030;14.710;2023-09-18T03:26:15;97196.80;;;15.98
68027;BMP180;54819;48.030;14.710;2023-09-18T03:28:42;97192.80;;;16.00
68027;BMP180;54819;48.030;14.710;2023-09-18T03:31:09;97192.60;;;15.90
68027;BMP180;54819;48.030;14.710;2023-09-18T03:33:37;97187.20;;;15.90
68027;BMP180;54819;48.030;14.710;2023-09-18T03:36:04;97177.20;;;15.90
68027;BMP180;54819;48.030;14.710;2023-09-18T03:38:33;97177.40;;;15.90
68027;BMP180;54819;48.030;14.710;2023-09-18T03:41:02;97177.60;;;15.86
68027;BMP180;54819;48.030;14.710;2023-09-18T03:43:29;97175.80;;;15.80
68027;BMP180;54819;48.030;14.710;2023-09-18T03:46:06;97175.40;;;15.80
68027;BMP180;54819;48.030;14.710;2023-09-18T03:48:38;97176.60;;;15.76
68027;BMP180;54819;48.030;14.710;2023-09-18T03:51:06;97180.20;;;15.70
68027;BMP180;54819;48.030;14.710;2023-09-18T03:53:33;97181.80;;;15.70
68027;BMP180;54819;48.030;14.710;2023-09-18T03:56:01;97184.80;;;15.70
68027;BMP180;54819;48.030;14.710;2023-09-18T03:58:27;97185.60;;;15.62
68027;BMP180;54819;48.030;14.710;2023-09-18T04:00:55;97183.20;;;15.60
68027;BMP180;54819;48.030;14.710;2023-09-18T04:03:22;97175.80;;;15.60
68027;BMP180;54819;48.030;14.710;2023-09-18T04:05:49;97167.40;;;15.60
68027;BMP180;54819;48.030;14.710;2023-09-18T04:08:15;97163.00;;;15.50
68027;BMP180;54819;48.030;14.710;2023-09-18T04:10:42;97153.80;;;15.50
68027;BMP180;54819;48.030;14.710;2023-09-18T04:13:10;97152.00;;;15.50
68027;BMP180;54819;48.030;14.710;2023-09-18T04:15:37;97154.80;;;15.50
68027;BMP180;54819;48.030;14.710;2023-09-18T04:18:04;97149.80;;;15.50
68027;BMP180;54819;48.030;14.710;2023-09-18T04:20:32;97147.80;;;15.50
68027;BMP180;54819;48.030;14.710;2023-09-18T04:23:20;97142.20;;;15.50
68027;BMP180;54819;48.030;14.710;2023-09-18T04:25:47;97135.00;;;15.50
68027;BMP180;54819;48.030;14.710;2023-09-18T04:28:17;97132.20;;;15.50
68027;BMP180;54819;48.030;14.710;2023-09-18T04:30:45;97132.60;;;15.50
68027;BMP180;54819;48.030;14.710;2023-09-18T04:33:16;97133.20;;;15.50
68027;BMP180;54819;48.030;14.710;2023-09-18T04:35:43;97130.00;;;15.50
68027;BMP180;54819;48.030;14.710;2023-09-18T04:38:12;97129.40;;;15.50
68027;BMP180;54819;48.030;14.710;2023-09-18T04:40:41;97121.60;;;15.50
68027;BMP180;54819;48.030;14.710;2023-09-18T04:43:08;97119.20;;;15.50
68027;BMP180;54819;48.030;14.710;2023-09-18T04:45:34;97121.20;;;15.50
68027;BMP180;54819;48.030;14.710;2023-09-18T04:48:02;97126.00;;;15.50
68027;BMP180;54819;48.030;14.710;2023-09-18T04:50:30;97125.80;;;15.50
68027;BMP180;54819;48.030;14.710;2023-09-18T04:52:57;97120.80;;;15.50
68027;BMP180;54819;48.030;14.710;2023-09-18T04:55:25;97111.40;;;15.50
68027;BMP180;54819;48.030;14.710;2023-09-18T04:57:51;97109.60;;;15.50
68027;BMP180;54819;48.030;14.710;2023-09-18T05:00:19;97106.80;;;15.50
68027;BMP180;54819;48.030;14.710;2023-09-18T05:02:50;97111.00;;;15.60
68027;BMP180;54819;48.030;14.710;2023-09-18T05:05:17;97115.20;;;15.60
68027;BMP180;54819;48.030;14.710;2023-09-18T05:07:45;97107.60;;;15.60
68027;BMP180;54819;48.030;14.710;2023-09-18T05:10:11;97100.60;;;15.60
68027;BMP180;54819;48.030;14.710;2023-09-18T05:12:39;97095.20;;;15.60
68027;BMP180;54819;48.030;14.710;2023-09-18T05:15:06;97095.80;;;15.60
68027;BMP180;54819;48.030;14.710;2023-09-18T05:17:44;97090.40;;;15.62
68027;BMP180;54819;48.030;14.710;2023-09-18T05:20:16;97088.60;;;15.70
68027;BMP180;54819;48.030;14.710;2023-09-18T05:22:44;97081.00;;;15.70
68027;BMP180;54819;48.030;14.710;2023-09-18T05:25:12;97086.20;;;15.80
68027;BMP180;54819;48.030;14.710;2023-09-18T05:27:41;97086.40;;;15.80
68027;BMP180;54819;48.030;14.710;2023-09-18T05:30:12;97086.20;;;15.90
68027;BMP180;54819;48.030;14.710;2023-09-18T05:32:40;97081.40;;;15.96
68027;BMP180;54819;48.030;14.710;2023-09-18T05:35:07;97079.00;;;16.00
68027;BMP180;54819;48.030;14.710;2023-09-18T05:37:37;97084.40;;;16.00
68027;BMP180;54819;48.030;14.710;2023-09-18T05:40:09;97079.60;;;16.10
68027;BMP180;54819;48.030;14.710;2023-09-18T05:42:37;97075.80;;;16.10
68027;BMP180;54819;48.030;14.710;2023-09-18T05:45:05;97069.80;;;16.20
68027;BMP180;54819;48.030;14.710;2023-09-18T05:47:32;97066.60;;;16.20
68027;BMP180;54819;48.030;14.710;2023-09-18T05:49:59;97062.40;;;16.30
68027;BMP180;54819;48.030;14.710;2023-09-18T05:52:26;97068.40;;;16.40
68027;BMP180;54819;48.030;14.710;2023-09-18T05:54:53;97069.60;;;16.48
68027;BMP180;54819;48.030;14.710;2023-09-18T05:57:19;97066.20;;;16.52
68027;BMP180;54819;48.030;14.710;2023-09-18T05:59:46;97068.80;;;16.60
68027;BMP180;54819;48.030;14.710;2023-09-18T06:02:13;97071.60;;;16.70
68027;BMP180;54819;48.030;14.710;2023-09-18T06:04:42;97065.80;;;16.82
68027;BMP180;54819;48.030;14.710;2023-09-18T06:07:09;97059.80;;;17.00
68027;BMP180;54819;48.030;14.710;2023-09-18T06:09:37;97055.60;;;17.10
68027;BMP180;54819;48.030;14.710;2023-09-18T06:12:04;97053.60;;;17.20
68027;BMP180;54819;48.030;14.710;2023-09-18T06:14:32;97049.00;;;17.34
68027;BMP180;54819;48.030;14.710;2023-09-18T06:17:01;97054.40;;;17.50
68027;BMP180;54819;48.030;14.710;2023-09-18T06:19:28;97064.40;;;17.60
68027;BMP180;54819;48.030;14.710;2023-09-18T06:21:55;97065.20;;;17.70
68027;BMP180;54819;48.030;14.710;2023-09-18T06:24:21;97059.80;;;17.88
68027;BMP180;54819;48.030;14.710;2023-09-18T06:26:48;97055.20;;;18.00
68027;BMP180;54819;48.030;14.710;2023-09-18T06:29:15;97055.80;;;18.10
68027;BMP180;54819;48.030;14.710;2023-09-18T06:31:41;97052.60;;;18.24
68027;BMP180;54819;48.030;14.710;2023-09-18T06:34:08;97048.20;;;18.38
68027;BMP180;54819;48.030;14.710;2023-09-18T06:36:35;97050.40;;;18.50
68027;BMP180;54819;48.030;14.710;2023-09-18T06:39:01;97049.40;;;18.54
68027;BMP180;54819;48.030;14.710;2023-09-18T06:41:29;97046.80;;;18.60
68027;BMP180;54819;48.030;14.710;2023-09-18T06:43:56;97041.80;;;18.70
68027;BMP180;54819;48.030;14.710;2023-09-18T06:46:23;97038.80;;;18.80
68027;BMP180;54819;48.030;14.710;2023-09-18T06:48:50;97041.60;;;18.90
68027;BMP180;54819;48.030;14.710;2023-09-18T06:51:18;97039.00;;;19.00
68027;BMP180;54819;48.030;14.710;2023-09-18T06:54:05;97040.20;;;19.10
68027;BMP180;54819;48.030;14.710;2023-09-18T06:56:32;97045.60;;;19.20
68027;BMP180;54819;48.030;14.710;2023-09-18T06:58:58;97046.20;;;19.30
68027;BMP180;54819;48.030;14.710;2023-09-18T07:01:25;97042.00;;;19.40
68027;BMP180;54819;48.030;14.710;2023-09-18T07:03:53;97041.40;;;19.50
68027;BMP180;54819;48.030;14.710;2023-09-18T07:06:20;97035.20;;;19.50
68027;BMP180;54819;48.030;14.710;2023-09-18T07:08:48;97040.60;;;19.60
68027;BMP180;54819;48.030;14.710;2023-09-18T07:11:20;97044.40;;;19.60
68027;BMP180;54819;48.030;14.710;2023-09-18T07:13:49;97032.00;;;19.70
68027;BMP180;54819;48.030;14.710;2023-09-18T07:16:16;97029.80;;;19.80
68027;BMP180;54819;48.030;14.710;2023-09-18T07:18:42;97031.80;;;19.90
68027;BMP180;54819;48.030;14.710;2023-09-18T07:21:09;97042.20;;;20.00
68027;BMP180;54819;48.030;14.710;2023-09-18T07:23:36;97040.20;;;20.08
68027;BMP180;54819;48.030;14.710;2023-09-18T07:26:03;97031.60;;;20.10
68027;BMP180;54819;48.030;14.710;2023-09-18T07:28:30;97028.20;;;20.20
68027;BMP180;54819;48.030;14.710;2023-09-18T07:30:57;97030.60;;;20.30
68027;BMP180;54819;48.030;14.710;2023-09-18T07:33:29;97027.60;;;20.38
68027;BMP180;54819;48.030;14.710;2023-09-18T07:35:56;97023.40;;;20.40
68027;BMP180;54819;48.030;14.710;2023-09-18T07:38:24;97020.00;;;20.50
68027;BMP180;54819;48.030;14.710;2023-09-18T07:40:51;97018.20;;;20.60
68027;BMP180;54819;48.030;14.710;2023-09-18T07:43:18;97012.40;;;20.70
68027;BMP180;54819;48.030;14.710;2023-09-18T07:45:45;97019.80;;;20.70
68027;BMP180;54819;48.030;14.710;2023-09-18T07:48:11;97017.20;;;20.90
68027;BMP180;54819;48.030;14.710;2023-09-18T07:50:43;97018.20;;;21.00
68027;BMP180;54819;48.030;14.710;2023-09-18T07:53:11;97016.80;;;21.10
68027;BMP180;54819;48.030;14.710;2023-09-18T07:55:37;97016.40;;;21.20
68027;BMP180;54819;48.030;14.710;2023-09-18T07:58:04;97007.80;;;21.30
68027;BMP180;54819;48.030;14.710;2023-09-18T08:00:31;97011.20;;;21.40
68027;BMP180;54819;48.030;14.710;2023-09-18T08:02:59;97015.20;;;21.54
68027;BMP180;54819;48.030;14.710;2023-09-18T08:05:27;97019.60;;;21.70
68027;BMP180;54819;48.030;14.710;2023-09-18T08:07:55;97018.40;;;21.78
68027;BMP180;54819;48.030;14.710;2023-09-18T08:10:26;97021.60;;;21.82
68027;BMP180;54819;48.030;14.710;2023-09-18T08:12:52;97020.00;;;22.00
68027;BMP180;54819;48.030;14.710;2023-09-18T08:15:20;97019.20;;;22.10
68027;BMP180;54819;48.030;14.710;2023-09-18T08:17:47;97019.80;;;22.30
68027;BMP180;54819;48.030;14.710;2023-09-18T08:20:20;97024.60;;;22.40
68027;BMP180;54819;48.030;14.710;2023-09-18T08:22:47;97020.20;;;22.60
68027;BMP180;54819;48.030;14.710;2023-09-18T08:25:14;97025.60;;;22.80
68027;BMP180;54819;48.030;14.710;2023-09-18T08:27:42;97029.80;;;22.98
68027;BMP180;54819;48.030;14.710;2023-09-18T08:30:13;97032.40;;;23.00
68027;BMP180;54819;48.030;14.710;2023-09-18T08:32:41;97026.20;;;23.00
68027;BMP180;54819;48.030;14.710;2023-09-18T08:35:09;97015.60;;;23.10
68027;BMP180;54819;48.030;14.710;2023-09-18T08:37:36;97009.20;;;23.10
68027;BMP180;54819;48.030;14.710;2023-09-18T08:40:03;97008.40;;;23.10
68027;BMP180;54819;48.030;14.710;2023-09-18T08:42:45;97014.60;;;23.10
68027;BMP180;54819;48.030;14.710;2023-09-18T08:45:19;97015.40;;;23.10
68027;BMP180;54819;48.030;14.710;2023-09-18T08:47:49;97011.00;;;23.10
68027;BMP180;54819;48.030;14.710;2023-09-18T08:50:18;97005.80;;;23.10
68027;BMP180;54819;48.030;14.710;2023-09-18T08:52:47;96995.40;;;23.10
68027;BMP180;54819;48.030;14.710;2023-09-18T08:55:14;96998.20;;;23.12
68027;BMP180;54819;48.030;14.710;2023-09-18T08:57:41;96993.40;;;23.10
68027;BMP180;54819;48.030;14.710;2023-09-18T09:00:11;96991.00;;;23.10
68027;BMP180;54819;48.030;14.710;2023-09-18T09:02:45;96994.00;;;23.20
68027;BMP180;54819;48.030;14.710;2023-09-18T09:05:15;97001.40;;;23.20
68027;BMP180;54819;48.030;14.710;2023-09-18T09:07:42;97004.40;;;23.30
68027;BMP180;54819;48.030;14.710;2023-09-18T09:10:09;97008.00;;;23.40
68027;BMP180;54819;48.030;14.710;2023-09-18T09:12:56;97010.40;;;23.40
68027;BMP180;54819;48.030;14.710;2023-09-18T09:15:29;97010.60;;;23.48
68027;BMP180;54819;48.030;14.710;2023-09-18T09:18:06;96995.20;;;23.60
68027;BMP180;54819;48.030;14.710;2023-09-18T09:20:35;96992.20;;;23.70
68027;BMP180;54819;48.030;14.710;2023-09-18T09:23:04;96986.40;;;23.80
68027;BMP180;54819;48.030;14.710;2023-09-18T09:25:32;96987.80;;;23.80
68027;BMP180;54819;48.030;14.710;2023-09-18T09:28:02;96988.80;;;23.90
68027;BMP180;54819;48.030;14.710;2023-09-18T09:30:32;96991.00;;;24.00
68027;BMP180;54819;48.030;14.710;2023-09-18T09:32:59;96994.00;;;24.16
68027;BMP180;54819;48.030;14.710;2023-09-18T09:35:28;96987.60;;;24.20
68027;BMP180;54819;48.030;14.710;2023-09-18T09:38:00;96984.40;;;24.30
68027;BMP180;54819;48.030;14.710;2023-09-18T09:40:30;96981.00;;;24.34
68027;BMP180;54819;48.030;14.710;2023-09-18T09:42:57;96971.00;;;24.40
68027;BMP180;54819;48.030;14.710;2023-09-18T09:45:29;96966.60;;;24.48
68027;BMP180;54819;48.030;14.710;2023-09-18T09:48:04;96958.40;;;24.50
68027;BMP180;54819;48.030;14.710;2023-09-18T09:50:35;96950.80;;;24.50
68027;BMP180;54819;48.030;14.710;2023-09-18T09:53:13;96947.20;;;24.60
68027;BMP180;54819;48.030;14.710;2023-09-18T09:55:41;96932.40;;;24.62
68027;BMP180;54819;48.030;14.710;2023-09-18T09:58:09;96927.80;;;24.68
68027;BMP180;54819;48.030;14.710;2023-09-18T10:00:48;96921.20;;;24.70
68027;BMP180;54819;48.030;14.710;2023-09-18T10:03:19;96920.80;;;24.70
68027;BMP180;54819;48.030;14.710;2023-09-18T10:05:47;96922.40;;;24.80
68027;BMP180;54819;48.030;14.710;2023-09-18T10:08:18;96923.80;;;24.90
68027;BMP180;54819;48.030;14.710;2023-09-18T10:10:51;96922.00;;;24.96
68027;BMP180;54819;48.030;14.710;2023-09-18T10:13:21;96919.20;;;24.90
68027;BMP180;54819;48.030;14.710;2023-09-18T10:15:51;96914.20;;;24.92
68027;BMP180;54819;48.030;14.710;2023-09-18T10:20:58;96915.40;;;25.08
68027;BMP180;54819;48.030;14.710;2023-09-18T10:23:38;96912.60;;;25.10
68027;BMP180;54819;48.030;14.710;2023-09-18T10:26:14;96909.60;;;25.12
68027;BMP180;54819;48.030;14.710;2023-09-18T10:28:47;96903.00;;;25.14
68027;BMP180;54819;48.030;14.710;2023-09-18T10:31:15;96906.20;;;25.20
68027;BMP180;54819;48.030;14.710;2023-09-18T10:33:43;96905.40;;;25.30
68027;BMP180;54819;48.030;14.710;2023-09-18T10:36:12;96904.80;;;25.30
68027;BMP180;54819;48.030;14.710;2023-09-18T10:38:39;96904.60;;;25.30
68027;BMP180;54819;48.030;14.710;2023-09-18T10:41:08;96902.00;;;25.40
68027;BMP180;54819;48.030;14.710;2023-09-18T10:43:37;96893.00;;;25.40
68027;BMP180;54819;48.030;14.710;2023-09-18T10:46:04;96893.00;;;25.40
68027;BMP180;54819;48.030;14.710;2023-09-18T10:48:31;96887.40;;;25.40
68027;BMP180;54819;48.030;14.710;2023-09-18T10:50:58;96885.00;;;25.40
68027;BMP180;54819;48.030;14.710;2023-09-18T10:53:31;96884.80;;;25.40
68027;BMP180;54819;48.030;14.710;2023-09-18T10:55:58;96882.80;;;25.50
68027;BMP180;54819;48.030;14.710;2023-09-18T10:58:26;96881.80;;;25.54
68027;BMP180;54819;48.030;14.710;2023-09-18T11:00:54;96885.00;;;25.58
68027;BMP180;54819;48.030;14.710;2023-09-18T11:03:22;96882.20;;;25.60
68027;BMP180;54819;48.030;14.710;2023-09-18T11:06:11;96879.80;;;25.68
68027;BMP180;54819;48.030;14.710;2023-09-18T11:08:49;96880.00;;;25.70
68027;BMP180;54819;48.030;14.710;2023-09-18T11:11:18;96879.00;;;25.78
68027;BMP180;54819;48.030;14.710;2023-09-18T11:13:53;96880.40;;;25.80
68027;BMP180;54819;48.030;14.710;2023-09-18T11:21:30;96871.80;;;25.90
68027;BMP180;54819;48.030;14.710;2023-09-18T11:24:08;96868.40;;;25.92
68027;BMP180;54819;48.030;14.710;2023-09-18T11:26:44;96866.80;;;26.00
68027;BMP180;54819;48.030;14.710;2023-09-18T11:29:14;96869.20;;;26.10
68027;BMP180;54819;48.030;14.710;2023-09-18T11:31:48;96863.80;;;26.10
68027;BMP180;54819;48.030;14.710;2023-09-18T11:34:28;96865.60;;;26.20
68027;BMP180;54819;48.030;14.710;2023-09-18T11:36:58;96859.20;;;26.30
68027;BMP180;54819;48.030;14.710;2023-09-18T11:39:39;96859.80;;;26.30
68027;BMP180;54819;48.030;14.710;2023-09-18T11:42:14;96858.00;;;26.40
68027;BMP180;54819;48.030;14.710;2023-09-18T11:44:43;96856.20;;;26.40
68027;BMP180;54819;48.030;14.710;2023-09-18T11:47:17;96859.60;;;26.50
68027;BMP180;54819;48.030;14.710;2023-09-18T11:52:24;96856.00;;;26.60
68027;BMP180;54819;48.030;14.710;2023-09-18T11:54:52;96857.40;;;26.60
68027;BMP180;54819;48.030;14.710;2023-09-18T11:57:19;96858.40;;;26.62
68027;BMP180;54819;48.030;14.710;2023-09-18T11:59:46;96863.60;;;26.70
68027;BMP180;54819;48.030;14.710;2023-09-18T12:02:20;96867.80;;;26.80
68027;BMP180;54819;48.030;14.710;2023-09-18T12:04:55;96868.20;;;26.86
68027;BMP180;54819;48.030;14.710;2023-09-18T12:07:23;96869.00;;;26.90
68027;BMP180;54819;48.030;14.710;2023-09-18T12:09:51;96865.80;;;26.98
68027;BMP180;54819;48.030;14.710;2023-09-18T12:12:18;96861.40;;;27.10
68027;BMP180;54819;48.030;14.710;2023-09-18T12:14:44;96866.60;;;27.10
68027;BMP180;54819;48.030;14.710;2023-09-18T12:17:15;96866.40;;;27.20
68027;BMP180;54819;48.030;14.710;2023-09-18T12:19:53;96867.00;;;27.20
68027;BMP180;54819;48.030;14.710;2023-09-18T12:22:27;96875.40;;;27.30
68027;BMP180;54819;48.030;14.710;2023-09-18T12:25:14;96881.80;;;27.40
68027;BMP180;54819;48.030;14.710;2023-09-18T12:27:43;96890.40;;;27.52
68027;BMP180;54819;48.030;14.710;2023-09-18T12:30:13;96901.20;;;27.70
68027;BMP180;54819;48.030;14.710;2023-09-18T12:32:51;96903.40;;;27.80
68027;BMP180;54819;48.030;14.710;2023-09-18T12:35:18;96905.60;;;27.90
68027;BMP180;54819;48.030;14.710;2023-09-18T12:37:45;96899.20;;;28.00
68027;BMP180;54819;48.030;14.710;2023-09-18T12:40:22;96900.00;;;28.10
68027;BMP180;54819;48.030;14.710;2023-09-18T12:42:50;96901.20;;;28.14
68027;BMP180;54819;48.030;14.710;2023-09-18T12:45:17;96904.20;;;28.20
68027;BMP180;54819;48.030;14.710;2023-09-18T12:47:45;96903.60;;;28.20
68027;BMP180;54819;48.030;14.710;2023-09-18T12:50:13;96905.40;;;28.24
68027;BMP180;54819;48.030;14.710;2023-09-18T12:52:40;96908.20;;;28.30
68027;BMP180;54819;48.030;14.710;2023-09-18T12:55:08;96906.00;;;28.20
68027;BMP180;54819;48.030;14.710;2023-09-18T12:57:35;96903.60;;;28.18
68027;BMP180;54819;48.030;14.710;2023-09-18T13:00:09;96901.00;;;28.20
68027;BMP180;54819;48.030;14.710;2023-09-18T13:02:39;96902.60;;;28.30
68027;BMP180;54819;48.030;14.710;2023-09-18T13:05:06;96900.40;;;28.30
68027;BMP180;54819;48.030;14.710;2023-09-18T13:07:43;96898.60;;;28.40
68027;BMP180;54819;48.030;14.710;2023-09-18T13:10:11;96903.20;;;28.40
68027;BMP180;54819;48.030;14.710;2023-09-18T13:12:47;96902.80;;;28.50
68027;BMP180;54819;48.030;14.710;2023-09-18T13:15:28;96905.20;;;28.56
68027;BMP180;54819;48.030;14.710;2023-09-18T13:17:59;96910.00;;;28.58
68027;BMP180;54819;48.030;14.710;2023-09-18T13:20:28;96916.20;;;28.60
68027;BMP180;54819;48.030;14.710;2023-09-18T13:22:58;96917.20;;;28.60
68027;BMP180;54819;48.030;14.710;2023-09-18T13:25:36;96921.40;;;28.66
68027;BMP180;54819;48.030;14.710;2023-09-18T13:28:06;96918.40;;;28.70
68027;BMP180;54819;48.030;14.710;2023-09-18T13:30:34;96914.00;;;28.72
68027;BMP180;54819;48.030;14.710;2023-09-18T13:33:03;96915.80;;;28.80
68027;BMP180;54819;48.030;14.710;2023-09-18T13:35:34;96916.20;;;28.90
68027;BMP180;54819;48.030;14.710;2023-09-18T13:38:01;96917.60;;;28.90
68027;BMP180;54819;48.030;14.710;2023-09-18T13:40:32;96920.40;;;29.00
68027;BMP180;54819;48.030;14.710;2023-09-18T13:43:06;96920.80;;;29.00
68027;BMP180;54819;48.030;14.710;2023-09-18T13:45:33;96916.60;;;28.90
68027;BMP180;54819;48.030;14.710;2023-09-18T13:48:04;96919.40;;;28.90
68027;BMP180;54819;48.030;14.710;2023-09-18T13:50:32;96922.60;;;28.90
68027;BMP180;54819;48.030;14.710;2023-09-18T13:53:00;96922.40;;;28.80
68027;BMP180;54819;48.030;14.710;2023-09-18T13:55:30;96930.00;;;28.80
68027;BMP180;54819;48.030;14.710;2023-09-18T13:57:57;96931.80;;;28.68
68027;BMP180;54819;48.030;14.710;2023-09-18T14:00:24;96937.80;;;28.50
68027;BMP180;54819;48.030;14.710;2023-09-18T14:02:52;96936.60;;;28.40
68027;BMP180;54819;48.030;14.710;2023-09-18T14:05:19;96941.40;;;28.40
68027;BMP180;54819;48.030;14.710;2023-09-18T14:07:46;96944.60;;;28.30
68027;BMP180;54819;48.030;14.710;2023-09-18T14:10:14;96952.00;;;28.30
68027;BMP180;54819;48.030;14.710;2023-09-18T14:12:42;96954.00;;;28.30
68027;BMP180;54819;48.030;14.710;2023-09-18T14:15:10;96954.00;;;28.30
68027;BMP180;54819;48.030;14.710;2023-09-18T14:17:37;96955.60;;;28.30